KEWR/EWR METAR and TAF weather

Enter ICAO airport designator
Station Type Date Time Source
KEWR METAR 2020/07/05 15:51 UTC NOAA

KEWR 051551Z 31005KT 10SM FEW020 FEW055 FEW250 31/17 A2995 RMK AO2 SLP142 T03110167


Station Type Date Time Source
KEWR Decoded METAR 2020/07/05 15:51 UTC NOAA

NEWARK INTERNATIONAL AIRPORT, NJ, United States (KEWR) 40-41N 74-10W 7M
Jul 05, 2020 - 11:51 AM EDT / 2020.07.05 1551 UTC
Wind: from the NW (310 degrees) at 6 MPH (5 KT):0
Visibility: 10 mile(s):0
Sky conditions: mostly clear
Temperature: 88.0 F (31.1 C)
Dew Point: 62.1 F (16.7 C)
Relative Humidity: 42%
Pressure (altimeter): 29.95 in. Hg (1014 hPa)
ob: KEWR 051551Z 31005KT 10SM FEW020 FEW055 FEW250 31/17 A2995 RMK AO2 SLP142 T03110167
cycle: 16

Station Type Date Time Source
KEWR TAF 2020/07/05 15:40 UTC NOAA

TAF
AMD KEWR 051437Z 0515/0618 28005KT P6SM FEW250
FM051900 15006KT P6SM FEW080 SCT250
FM060400 26006KT P6SM FEW080 SCT250
FM060900 27005KT P6SM FEW080 SCT250
FM061500 24005KT P6SM FEW080 SCT200

Example: see airport list